Terminal Aerodrome Forecast
Issued by NWS Pocatello, ID

Home | Current Version | Previous Version | Text Only | Print | Product List | Glossary On
Versions: 1 2 3 4 5 6 7 8 9 10 11 12 13 14 15 16 17 18 19
000
FTUS45 KPIH 241120
TAFPIH
TAF
KPIH 241120Z 2412/2512 22019KT P6SM BKN070 OVC100
     FM241600 20015G25KT 6SM -SHSN BKN025 OVC040
     FM242100 22020G30KT 2SM -SN BLSN OVC010
     FM250700 22017G27KT 4SM -SN BLSN SCT015 BKN100=

USA.gov is the U.S. government's official web portal to all federal, state and local government web resources and services.